sensor_id;sensor_type;location;lat;lon;timestamp;P1;durP1;ratioP1;P2;durP2;ratioP2
79139;SDS011;68546;59.142;37.948;2023-04-19T00:02:11;18.80;;;6.35;;
79139;SDS011;68546;59.142;37.948;2023-04-19T00:04:37;14.50;;;5.50;;
79139;SDS011;68546;59.142;37.948;2023-04-19T00:07:04;18.67;;;7.77;;
79139;SDS011;68546;59.142;37.948;2023-04-19T00:09:31;10.90;;;3.65;;
79139;SDS011;68546;59.142;37.948;2023-04-19T00:11:58;10.75;;;3.92;;
79139;SDS011;68546;59.142;37.948;2023-04-19T00:14:25;11.83;;;4.27;;
79139;SDS011;68546;59.142;37.948;2023-04-19T00:16:52;11.27;;;3.15;;
79139;SDS011;68546;59.142;37.948;2023-04-19T00:19:18;8.55;;;2.95;;
79139;SDS011;68546;59.142;37.948;2023-04-19T00:21:46;7.90;;;2.97;;
79139;SDS011;68546;59.142;37.948;2023-04-19T00:24:15;9.57;;;3.10;;
79139;SDS011;68546;59.142;37.948;2023-04-19T00:26:41;15.23;;;4.03;;
79139;SDS011;68546;59.142;37.948;2023-04-19T00:29:07;9.23;;;3.47;;
79139;SDS011;68546;59.142;37.948;2023-04-19T00:31:34;6.53;;;2.77;;
79139;SDS011;68546;59.142;37.948;2023-04-19T00:34:04;8.32;;;2.55;;
79139;SDS011;68546;59.142;37.948;2023-04-19T00:36:31;7.05;;;2.45;;
79139;SDS011;68546;59.142;37.948;2023-04-19T00:38:58;5.03;;;1.90;;
79139;SDS011;68546;59.142;37.948;2023-04-19T00:41:24;6.05;;;2.25;;
79139;SDS011;68546;59.142;37.948;2023-04-19T00:43:50;7.90;;;2.45;;
79139;SDS011;68546;59.142;37.948;2023-04-19T00:46:17;7.95;;;3.20;;
79139;SDS011;68546;59.142;37.948;2023-04-19T00:48:44;7.72;;;2.88;;
79139;SDS011;68546;59.142;37.948;2023-04-19T00:51:11;12.20;;;3.17;;
79139;SDS011;68546;59.142;37.948;2023-04-19T00:53:37;9.13;;;2.67;;
79139;SDS011;68546;59.142;37.948;2023-04-19T00:56:05;10.60;;;3.47;;
79139;SDS011;68546;59.142;37.948;2023-04-19T00:58:33;8.50;;;2.55;;
79139;SDS011;68546;59.142;37.948;2023-04-19T01:00:59;8.57;;;3.08;;
79139;SDS011;68546;59.142;37.948;2023-04-19T01:03:27;7.80;;;2.67;;
79139;SDS011;68546;59.142;37.948;2023-04-19T01:05:54;8.70;;;2.55;;
79139;SDS011;68546;59.142;37.948;2023-04-19T01:08:22;7.85;;;2.83;;
79139;SDS011;68546;59.142;37.948;2023-04-19T01:10:52;8.13;;;3.90;;
79139;SDS011;68546;59.142;37.948;2023-04-19T01:13:19;8.35;;;3.13;;
79139;SDS011;68546;59.142;37.948;2023-04-19T01:15:45;9.75;;;3.70;;
79139;SDS011;68546;59.142;37.948;2023-04-19T01:18:11;7.05;;;2.75;;
79139;SDS011;68546;59.142;37.948;2023-04-19T01:20:38;8.23;;;2.83;;
79139;SDS011;68546;59.142;37.948;2023-04-19T01:23:05;11.57;;;3.35;;
79139;SDS011;68546;59.142;37.948;2023-04-19T01:25:36;8.82;;;3.00;;
79139;SDS011;68546;59.142;37.948;2023-04-19T01:28:03;6.67;;;2.53;;
79139;SDS011;68546;59.142;37.948;2023-04-19T01:30:30;7.95;;;2.65;;
79139;SDS011;68546;59.142;37.948;2023-04-19T01:32:57;9.75;;;2.22;;
79139;SDS011;68546;59.142;37.948;2023-04-19T01:35:24;7.35;;;2.50;;
79139;SDS011;68546;59.142;37.948;2023-04-19T01:37:50;6.75;;;2.50;;
79139;SDS011;68546;59.142;37.948;2023-04-19T01:40:23;7.05;;;2.58;;
79139;SDS011;68546;59.142;37.948;2023-04-19T01:42:50;7.88;;;2.72;;
79139;SDS011;68546;59.142;37.948;2023-04-19T01:45:17;7.53;;;2.30;;
79139;SDS011;68546;59.142;37.948;2023-04-19T01:47:45;6.95;;;2.38;;
79139;SDS011;68546;59.142;37.948;2023-04-19T01:50:12;6.97;;;2.08;;
79139;SDS011;68546;59.142;37.948;2023-04-19T01:52:39;5.27;;;2.20;;
79139;SDS011;68546;59.142;37.948;2023-04-19T01:55:05;5.47;;;1.40;;
79139;SDS011;68546;59.142;37.948;2023-04-19T01:57:32;5.68;;;1.75;;
79139;SDS011;68546;59.142;37.948;2023-04-19T01:59:58;5.32;;;1.85;;
79139;SDS011;68546;59.142;37.948;2023-04-19T02:02:25;5.68;;;1.80;;
79139;SDS011;68546;59.142;37.948;2023-04-19T02:04:51;7.88;;;2.20;;
79139;SDS011;68546;59.142;37.948;2023-04-19T02:07:17;4.20;;;1.52;;
79139;SDS011;68546;59.142;37.948;2023-04-19T02:09:44;5.40;;;1.87;;
79139;SDS011;68546;59.142;37.948;2023-04-19T02:12:11;6.38;;;1.90;;
79139;SDS011;68546;59.142;37.948;2023-04-19T02:14:37;4.90;;;1.77;;
79139;SDS011;68546;59.142;37.948;2023-04-19T02:17:03;4.63;;;1.60;;
79139;SDS011;68546;59.142;37.948;2023-04-19T02:19:30;10.43;;;1.73;;
79139;SDS011;68546;59.142;37.948;2023-04-19T02:21:57;5.00;;;1.52;;
79139;SDS011;68546;59.142;37.948;2023-04-19T02:24:23;4.68;;;1.40;;
79139;SDS011;68546;59.142;37.948;2023-04-19T02:26:50;4.00;;;1.33;;
79139;SDS011;68546;59.142;37.948;2023-04-19T02:29:17;5.57;;;2.15;;
79139;SDS011;68546;59.142;37.948;2023-04-19T02:31:44;5.97;;;1.98;;
79139;SDS011;68546;59.142;37.948;2023-04-19T02:34:12;6.87;;;2.23;;
79139;SDS011;68546;59.142;37.948;2023-04-19T02:36:38;5.90;;;2.00;;
79139;SDS011;68546;59.142;37.948;2023-04-19T02:39:04;10.75;;;2.42;;
79139;SDS011;68546;59.142;37.948;2023-04-19T02:41:31;5.03;;;1.67;;
79139;SDS011;68546;59.142;37.948;2023-04-19T02:44:00;5.95;;;2.00;;
79139;SDS011;68546;59.142;37.948;2023-04-19T02:46:27;8.00;;;2.88;;
79139;SDS011;68546;59.142;37.948;2023-04-19T02:48:53;7.22;;;2.65;;
79139;SDS011;68546;59.142;37.948;2023-04-19T02:51:20;11.27;;;2.85;;
79139;SDS011;68546;59.142;37.948;2023-04-19T02:53:46;8.68;;;3.28;;
79139;SDS011;68546;59.142;37.948;2023-04-19T02:56:12;9.27;;;3.10;;
79139;SDS011;68546;59.142;37.948;2023-04-19T02:58:39;14.33;;;3.40;;
79139;SDS011;68546;59.142;37.948;2023-04-19T03:01:05;10.60;;;2.95;;
79139;SDS011;68546;59.142;37.948;2023-04-19T03:03:32;8.57;;;2.88;;
79139;SDS011;68546;59.142;37.948;2023-04-19T03:05:58;18.83;;;2.63;;
79139;SDS011;68546;59.142;37.948;2023-04-19T03:08:26;7.20;;;2.38;;
79139;SDS011;68546;59.142;37.948;2023-04-19T03:10:52;10.82;;;2.45;;
79139;SDS011;68546;59.142;37.948;2023-04-19T03:13:20;6.82;;;2.40;;
79139;SDS011;68546;59.142;37.948;2023-04-19T03:15:47;8.82;;;2.78;;
79139;SDS011;68546;59.142;37.948;2023-04-19T03:18:15;4.93;;;1.52;;
79139;SDS011;68546;59.142;37.948;2023-04-19T03:20:42;6.25;;;2.05;;
79139;SDS011;68546;59.142;37.948;2023-04-19T03:23:09;5.70;;;1.93;;
79139;SDS011;68546;59.142;37.948;2023-04-19T03:25:36;5.25;;;2.15;;
79139;SDS011;68546;59.142;37.948;2023-04-19T03:28:26;7.63;;;2.67;;
79139;SDS011;68546;59.142;37.948;2023-04-19T03:31:20;6.75;;;2.17;;
79139;SDS011;68546;59.142;37.948;2023-04-19T03:33:48;7.77;;;2.30;;
79139;SDS011;68546;59.142;37.948;2023-04-19T03:36:16;8.70;;;2.28;;
79139;SDS011;68546;59.142;37.948;2023-04-19T03:38:44;6.22;;;2.03;;
79139;SDS011;68546;59.142;37.948;2023-04-19T03:41:20;16.00;;;2.40;;
79139;SDS011;68546;59.142;37.948;2023-04-19T03:43:53;8.25;;;2.40;;
79139;SDS011;68546;59.142;37.948;2023-04-19T03:46:23;8.05;;;2.80;;
79139;SDS011;68546;59.142;37.948;2023-04-19T03:48:50;10.52;;;3.67;;
79139;SDS011;68546;59.142;37.948;2023-04-19T03:51:18;10.53;;;2.40;;
79139;SDS011;68546;59.142;37.948;2023-04-19T03:53:44;8.07;;;2.42;;
79139;SDS011;68546;59.142;37.948;2023-04-19T03:56:11;8.20;;;2.72;;
79139;SDS011;68546;59.142;37.948;2023-04-19T03:58:37;9.52;;;2.75;;
79139;SDS011;68546;59.142;37.948;2023-04-19T04:01:06;7.55;;;2.65;;
79139;SDS011;68546;59.142;37.948;2023-04-19T04:03:34;7.23;;;2.47;;
79139;SDS011;68546;59.142;37.948;2023-04-19T04:06:02;9.25;;;3.05;;
79139;SDS011;68546;59.142;37.948;2023-04-19T04:08:29;7.78;;;2.80;;
79139;SDS011;68546;59.142;37.948;2023-04-19T04:10:55;9.88;;;3.05;;
79139;SDS011;68546;59.142;37.948;2023-04-19T04:13:22;8.95;;;2.67;;
79139;SDS011;68546;59.142;37.948;2023-04-19T04:15:59;9.60;;;2.67;;
79139;SDS011;68546;59.142;37.948;2023-04-19T04:18:26;13.70;;;4.18;;
79139;SDS011;68546;59.142;37.948;2023-04-19T04:20:53;9.70;;;2.78;;
79139;SDS011;68546;59.142;37.948;2023-04-19T04:23:21;9.35;;;2.85;;
79139;SDS011;68546;59.142;37.948;2023-04-19T04:25:59;15.10;;;2.50;;
79139;SDS011;68546;59.142;37.948;2023-04-19T04:28:36;6.33;;;2.13;;
79139;SDS011;68546;59.142;37.948;2023-04-19T04:31:02;10.70;;;2.15;;
79139;SDS011;68546;59.142;37.948;2023-04-19T04:33:31;7.35;;;1.92;;
79139;SDS011;68546;59.142;37.948;2023-04-19T04:35:58;9.65;;;2.28;;
79139;SDS011;68546;59.142;37.948;2023-04-19T04:38:29;21.13;;;2.80;;
79139;SDS011;68546;59.142;37.948;2023-04-19T04:40:56;8.17;;;2.80;;
79139;SDS011;68546;59.142;37.948;2023-04-19T04:43:24;7.28;;;2.15;;
79139;SDS011;68546;59.142;37.948;2023-04-19T04:45:54;7.80;;;2.45;;
79139;SDS011;68546;59.142;37.948;2023-04-19T04:48:23;10.35;;;2.88;;
79139;SDS011;68546;59.142;37.948;2023-04-19T04:50:50;6.22;;;2.13;;
79139;SDS011;68546;59.142;37.948;2023-04-19T04:53:19;5.73;;;1.93;;
79139;SDS011;68546;59.142;37.948;2023-04-19T04:55:46;5.55;;;1.90;;
79139;SDS011;68546;59.142;37.948;2023-04-19T04:58:13;14.10;;;2.75;;
79139;SDS011;68546;59.142;37.948;2023-04-19T05:00:52;6.07;;;2.20;;
79139;SDS011;68546;59.142;37.948;2023-04-19T05:03:18;5.32;;;1.75;;
79139;SDS011;68546;59.142;37.948;2023-04-19T05:05:51;7.47;;;2.30;;
79139;SDS011;68546;59.142;37.948;2023-04-19T05:08:17;5.95;;;1.88;;
79139;SDS011;68546;59.142;37.948;2023-04-19T05:10:44;4.95;;;1.77;;
79139;SDS011;68546;59.142;37.948;2023-04-19T05:13:11;5.90;;;2.00;;
79139;SDS011;68546;59.142;37.948;2023-04-19T05:15:39;5.97;;;2.08;;
79139;SDS011;68546;59.142;37.948;2023-04-19T05:18:06;8.07;;;2.20;;
79139;SDS011;68546;59.142;37.948;2023-04-19T05:20:33;10.55;;;2.30;;
79139;SDS011;68546;59.142;37.948;2023-04-19T05:23:06;6.95;;;1.73;;
79139;SDS011;68546;59.142;37.948;2023-04-19T05:25:34;7.10;;;2.13;;
79139;SDS011;68546;59.142;37.948;2023-04-19T05:28:00;6.13;;;1.63;;
79139;SDS011;68546;59.142;37.948;2023-04-19T05:30:33;5.53;;;1.80;;
79139;SDS011;68546;59.142;37.948;2023-04-19T05:33:00;9.20;;;2.10;;
79139;SDS011;68546;59.142;37.948;2023-04-19T05:35:27;6.25;;;2.00;;
79139;SDS011;68546;59.142;37.948;2023-04-19T05:37:53;6.00;;;2.00;;
79139;SDS011;68546;59.142;37.948;2023-04-19T05:40:20;8.10;;;1.75;;
79139;SDS011;68546;59.142;37.948;2023-04-19T05:42:49;5.13;;;1.93;;
79139;SDS011;68546;59.142;37.948;2023-04-19T05:45:16;6.53;;;1.95;;
79139;SDS011;68546;59.142;37.948;2023-04-19T05:47:45;6.47;;;1.95;;
79139;SDS011;68546;59.142;37.948;2023-04-19T05:50:35;12.27;;;1.92;;
79139;SDS011;68546;59.142;37.948;2023-04-19T05:53:21;5.97;;;2.00;;
79139;SDS011;68546;59.142;37.948;2023-04-19T05:55:49;9.43;;;1.50;;
79139;SDS011;68546;59.142;37.948;2023-04-19T05:58:17;6.88;;;1.95;;
79139;SDS011;68546;59.142;37.948;2023-04-19T06:00:44;5.80;;;2.25;;
79139;SDS011;68546;59.142;37.948;2023-04-19T06:03:13;9.30;;;2.70;;
79139;SDS011;68546;59.142;37.948;2023-04-19T06:05:40;6.75;;;2.00;;
79139;SDS011;68546;59.142;37.948;2023-04-19T06:08:06;11.07;;;1.67;;
79139;SDS011;68546;59.142;37.948;2023-04-19T06:10:34;7.13;;;1.88;;
79139;SDS011;68546;59.142;37.948;2023-04-19T06:13:02;5.15;;;1.77;;
79139;SDS011;68546;59.142;37.948;2023-04-19T06:15:28;4.85;;;1.55;;
79139;SDS011;68546;59.142;37.948;2023-04-19T06:17:55;4.57;;;1.70;;
79139;SDS011;68546;59.142;37.948;2023-04-19T06:20:22;7.03;;;2.00;;
79139;SDS011;68546;59.142;37.948;2023-04-19T06:22:48;6.60;;;1.80;;
79139;SDS011;68546;59.142;37.948;2023-04-19T06:25:15;4.65;;;1.90;;
79139;SDS011;68546;59.142;37.948;2023-04-19T06:27:41;5.38;;;1.40;;
79139;SDS011;68546;59.142;37.948;2023-04-19T06:30:07;5.10;;;1.70;;
79139;SDS011;68546;59.142;37.948;2023-04-19T06:32:34;7.23;;;1.70;;
79139;SDS011;68546;59.142;37.948;2023-04-19T06:35:00;5.10;;;1.52;;
79139;SDS011;68546;59.142;37.948;2023-04-19T06:37:28;6.45;;;1.70;;
79139;SDS011;68546;59.142;37.948;2023-04-19T06:39:55;5.57;;;1.73;;
79139;SDS011;68546;59.142;37.948;2023-04-19T06:42:21;5.78;;;2.10;;
79139;SDS011;68546;59.142;37.948;2023-04-19T06:44:50;6.17;;;1.60;;
79139;SDS011;68546;59.142;37.948;2023-04-19T06:47:16;7.75;;;2.28;;
79139;SDS011;68546;59.142;37.948;2023-04-19T06:49:42;6.28;;;1.70;;
79139;SDS011;68546;59.142;37.948;2023-04-19T06:52:09;11.95;;;1.60;;
79139;SDS011;68546;59.142;37.948;2023-04-19T06:54:36;5.97;;;1.70;;
79139;SDS011;68546;59.142;37.948;2023-04-19T06:57:02;6.47;;;1.67;;
79139;SDS011;68546;59.142;37.948;2023-04-19T06:59:29;6.53;;;1.95;;
79139;SDS011;68546;59.142;37.948;2023-04-19T07:01:57;5.78;;;1.42;;
79139;SDS011;68546;59.142;37.948;2023-04-19T07:04:26;6.85;;;1.80;;
79139;SDS011;68546;59.142;37.948;2023-04-19T07:06:53;5.28;;;1.70;;
79139;SDS011;68546;59.142;37.948;2023-04-19T07:09:20;4.90;;;1.27;;
79139;SDS011;68546;59.142;37.948;2023-04-19T07:11:47;6.75;;;1.67;;
79139;SDS011;68546;59.142;37.948;2023-04-19T07:14:13;5.05;;;1.80;;
79139;SDS011;68546;59.142;37.948;2023-04-19T07:16:39;5.13;;;1.50;;
79139;SDS011;68546;59.142;37.948;2023-04-19T07:19:06;4.80;;;1.50;;
79139;SDS011;68546;59.142;37.948;2023-04-19T07:21:32;4.60;;;1.33;;
79139;SDS011;68546;59.142;37.948;2023-04-19T07:24:00;5.93;;;1.50;;
79139;SDS011;68546;59.142;37.948;2023-04-19T07:26:26;5.82;;;1.50;;
79139;SDS011;68546;59.142;37.948;2023-04-19T07:28:52;7.45;;;1.90;;
79139;SDS011;68546;59.142;37.948;2023-04-19T07:31:20;6.13;;;2.00;;
79139;SDS011;68546;59.142;37.948;2023-04-19T07:33:46;4.87;;;1.27;;
79139;SDS011;68546;59.142;37.948;2023-04-19T07:36:13;8.05;;;1.65;;
79139;SDS011;68546;59.142;37.948;2023-04-19T07:38:40;4.75;;;1.30;;
79139;SDS011;68546;59.142;37.948;2023-04-19T07:41:06;7.82;;;1.25;;
79139;SDS011;68546;59.142;37.948;2023-04-19T07:43:34;6.63;;;1.90;;
79139;SDS011;68546;59.142;37.948;2023-04-19T07:46:12;7.73;;;1.30;;
79139;SDS011;68546;59.142;37.948;2023-04-19T07:48:43;6.45;;;1.60;;
79139;SDS011;68546;59.142;37.948;2023-04-19T07:51:10;8.52;;;2.15;;
79139;SDS011;68546;59.142;37.948;2023-04-19T07:53:38;7.80;;;1.58;;
79139;SDS011;68546;59.142;37.948;2023-04-19T07:56:09;6.70;;;1.80;;
79139;SDS011;68546;59.142;37.948;2023-04-19T07:58:37;9.57;;;1.70;;
79139;SDS011;68546;59.142;37.948;2023-04-19T08:01:04;6.70;;;1.60;;
79139;SDS011;68546;59.142;37.948;2023-04-19T08:03:32;7.68;;;1.63;;
79139;SDS011;68546;59.142;37.948;2023-04-19T08:06:03;4.68;;;1.27;;
79139;SDS011;68546;59.142;37.948;2023-04-19T08:08:30;7.05;;;1.30;;
79139;SDS011;68546;59.142;37.948;2023-04-19T08:10:57;5.10;;;1.33;;
79139;SDS011;68546;59.142;37.948;2023-04-19T08:13:26;4.65;;;1.38;;
79139;SDS011;68546;59.142;37.948;2023-04-19T08:15:52;7.45;;;1.52;;
79139;SDS011;68546;59.142;37.948;2023-04-19T08:18:19;4.85;;;1.30;;
79139;SDS011;68546;59.142;37.948;2023-04-19T08:20:45;4.30;;;1.20;;
79139;SDS011;68546;59.142;37.948;2023-04-19T08:23:13;4.10;;;1.13;;
79139;SDS011;68546;59.142;37.948;2023-04-19T08:25:40;5.03;;;1.25;;
79139;SDS011;68546;59.142;37.948;2023-04-19T08:28:06;4.60;;;1.50;;
79139;SDS011;68546;59.142;37.948;2023-04-19T08:30:33;6.85;;;1.60;;
79139;SDS011;68546;59.142;37.948;2023-04-19T08:32:59;9.90;;;1.30;;
79139;SDS011;68546;59.142;37.948;2023-04-19T08:35:26;4.47;;;1.00;;
79139;SDS011;68546;59.142;37.948;2023-04-19T08:37:52;9.27;;;1.50;;
79139;SDS011;68546;59.142;37.948;2023-04-19T08:40:18;9.57;;;1.15;;
79139;SDS011;68546;59.142;37.948;2023-04-19T08:42:46;5.07;;;1.08;;
79139;SDS011;68546;59.142;37.948;2023-04-19T08:45:12;3.95;;;1.10;;
79139;SDS011;68546;59.142;37.948;2023-04-19T08:47:41;6.03;;;1.00;;
79139;SDS011;68546;59.142;37.948;2023-04-19T08:50:08;5.35;;;1.33;;
79139;SDS011;68546;59.142;37.948;2023-04-19T08:52:36;4.18;;;1.17;;
79139;SDS011;68546;59.142;37.948;2023-04-19T08:55:03;6.72;;;1.30;;
79139;SDS011;68546;59.142;37.948;2023-04-19T08:57:32;4.32;;;1.13;;
79139;SDS011;68546;59.142;37.948;2023-04-19T09:00:00;16.07;;;7.17;;
79139;SDS011;68546;59.142;37.948;2023-04-19T09:02:45;4.97;;;1.73;;
79139;SDS011;68546;59.142;37.948;2023-04-19T09:05:14;5.72;;;1.35;;
79139;SDS011;68546;59.142;37.948;2023-04-19T09:07:41;4.88;;;1.13;;
79139;SDS011;68546;59.142;37.948;2023-04-19T09:10:10;3.85;;;0.88;;
79139;SDS011;68546;59.142;37.948;2023-04-19T09:12:38;5.53;;;1.20;;
79139;SDS011;68546;59.142;37.948;2023-04-19T09:15:07;6.15;;;1.23;;
79139;SDS011;68546;59.142;37.948;2023-04-19T09:17:38;3.72;;;1.20;;
79139;SDS011;68546;59.142;37.948;2023-04-19T09:20:05;5.68;;;1.15;;
79139;SDS011;68546;59.142;37.948;2023-04-19T09:22:32;5.38;;;1.20;;
79139;SDS011;68546;59.142;37.948;2023-04-19T09:24:58;4.20;;;0.90;;
79139;SDS011;68546;59.142;37.948;2023-04-19T09:27:31;3.15;;;0.90;;
79139;SDS011;68546;59.142;37.948;2023-04-19T09:29:59;6.22;;;1.30;;
79139;SDS011;68546;59.142;37.948;2023-04-19T09:32:27;6.07;;;1.48;;
79139;SDS011;68546;59.142;37.948;2023-04-19T09:34:54;7.40;;;1.33;;
79139;SDS011;68546;59.142;37.948;2023-04-19T09:37:26;10.60;;;1.97;;
79139;SDS011;68546;59.142;37.948;2023-04-19T09:39:54;5.95;;;1.63;;
79139;SDS011;68546;59.142;37.948;2023-04-19T09:42:20;4.68;;;1.20;;
79139;SDS011;68546;59.142;37.948;2023-04-19T09:44:55;6.38;;;1.50;;
79139;SDS011;68546;59.142;37.948;2023-04-19T09:47:25;4.97;;;1.35;;
79139;SDS011;68546;59.142;37.948;2023-04-19T09:50:04;6.53;;;1.57;;
79139;SDS011;68546;59.142;37.948;2023-04-19T09:52:32;5.95;;;1.30;;
79139;SDS011;68546;59.142;37.948;2023-04-19T09:55:00;5.97;;;1.35;;
79139;SDS011;68546;59.142;37.948;2023-04-19T09:57:30;6.20;;;1.10;;
79139;SDS011;68546;59.142;37.948;2023-04-19T09:59:58;3.72;;;1.08;;
79139;SDS011;68546;59.142;37.948;2023-04-19T10:02:39;3.50;;;1.10;;
79139;SDS011;68546;59.142;37.948;2023-04-19T10:05:07;3.30;;;0.70;;
79139;SDS011;68546;59.142;37.948;2023-04-19T10:07:36;11.05;;;1.60;;
79139;SDS011;68546;59.142;37.948;2023-04-19T10:10:05;5.25;;;1.08;;
79139;SDS011;68546;59.142;37.948;2023-04-19T10:12:33;6.13;;;1.20;;
79139;SDS011;68546;59.142;37.948;2023-04-19T10:15:01;6.97;;;1.30;;
79139;SDS011;68546;59.142;37.948;2023-04-19T10:17:29;5.20;;;1.10;;
79139;SDS011;68546;59.142;37.948;2023-04-19T10:20:00;5.85;;;1.50;;
79139;SDS011;68546;59.142;37.948;2023-04-19T10:22:37;9.10;;;1.20;;
79139;SDS011;68546;59.142;37.948;2023-04-19T10:25:15;9.63;;;1.80;;
79139;SDS011;68546;59.142;37.948;2023-04-19T10:27:44;4.73;;;1.20;;
79139;SDS011;68546;59.142;37.948;2023-04-19T10:30:18;4.43;;;1.20;;
79139;SDS011;68546;59.142;37.948;2023-04-19T10:32:53;3.95;;;1.05;;
79139;SDS011;68546;59.142;37.948;2023-04-19T10:35:25;5.38;;;1.05;;
79139;SDS011;68546;59.142;37.948;2023-04-19T10:38:12;4.57;;;1.20;;
79139;SDS011;68546;59.142;37.948;2023-04-19T10:43:29;4.18;;;1.08;;
79139;SDS011;68546;59.142;37.948;2023-04-19T10:48:53;4.03;;;1.20;;
79139;SDS011;68546;59.142;37.948;2023-04-19T10:51:37;6.30;;;1.20;;
79139;SDS011;68546;59.142;37.948;2023-04-19T10:57:05;9.77;;;1.20;;
79139;SDS011;68546;59.142;37.948;2023-04-19T10:59:34;4.60;;;1.10;;
79139;SDS011;68546;59.142;37.948;2023-04-19T11:02:04;5.43;;;1.20;;
79139;SDS011;68546;59.142;37.948;2023-04-19T11:07:19;5.33;;;1.20;;
79139;SDS011;68546;59.142;37.948;2023-04-19T11:09:46;4.15;;;1.35;;
79139;SDS011;68546;59.142;37.948;2023-04-19T11:12:14;6.28;;;1.50;;
79139;SDS011;68546;59.142;37.948;2023-04-19T11:14:45;4.80;;;1.10;;
79139;SDS011;68546;59.142;37.948;2023-04-19T11:17:24;3.85;;;1.02;;
79139;SDS011;68546;59.142;37.948;2023-04-19T11:19:59;4.50;;;1.23;;
79139;SDS011;68546;59.142;37.948;2023-04-19T11:22:32;4.75;;;1.23;;
79139;SDS011;68546;59.142;37.948;2023-04-19T11:27:35;4.30;;;1.05;;
79139;SDS011;68546;59.142;37.948;2023-04-19T11:30:08;4.82;;;1.30;;
79139;SDS011;68546;59.142;37.948;2023-04-19T11:32:36;7.33;;;1.40;;
79139;SDS011;68546;59.142;37.948;2023-04-19T11:35:09;4.22;;;1.20;;
79139;SDS011;68546;59.142;37.948;2023-04-19T11:37:38;4.80;;;1.13;;
79139;SDS011;68546;59.142;37.948;2023-04-19T11:40:06;6.15;;;1.27;;
79139;SDS011;68546;59.142;37.948;2023-04-19T11:42:36;5.20;;;1.40;;
79139;SDS011;68546;59.142;37.948;2023-04-19T11:45:04;9.43;;;1.60;;
79139;SDS011;68546;59.142;37.948;2023-04-19T11:47:31;5.43;;;1.40;;
79139;SDS011;68546;59.142;37.948;2023-04-19T11:53:13;4.55;;;1.20;;
79139;SDS011;68546;59.142;37.948;2023-04-19T11:55:48;4.57;;;1.02;;
79139;SDS011;68546;59.142;37.948;2023-04-19T11:58:22;4.47;;;1.37;;
79139;SDS011;68546;59.142;37.948;2023-04-19T12:01:05;5.90;;;1.10;;
79139;SDS011;68546;59.142;37.948;2023-04-19T12:03:49;5.00;;;1.23;;
79139;SDS011;68546;59.142;37.948;2023-04-19T12:06:23;4.45;;;1.13;;
79139;SDS011;68546;59.142;37.948;2023-04-19T12:08:52;4.00;;;1.10;;
79139;SDS011;68546;59.142;37.948;2023-04-19T12:11:22;4.63;;;1.30;;
79139;SDS011;68546;59.142;37.948;2023-04-19T12:14:08;5.05;;;1.20;;
79139;SDS011;68546;59.142;37.948;2023-04-19T12:16:35;3.90;;;1.20;;
79139;SDS011;68546;59.142;37.948;2023-04-19T12:19:12;6.05;;;1.20;;
79139;SDS011;68546;59.142;37.948;2023-04-19T12:21:40;3.67;;;1.17;;
79139;SDS011;68546;59.142;37.948;2023-04-19T12:24:06;5.47;;;1.67;;
79139;SDS011;68546;59.142;37.948;2023-04-19T12:26:33;4.63;;;1.50;;
79139;SDS011;68546;59.142;37.948;2023-04-19T12:29:00;4.25;;;1.20;;
79139;SDS011;68546;59.142;37.948;2023-04-19T12:31:27;4.60;;;1.23;;
79139;SDS011;68546;59.142;37.948;2023-04-19T12:33:57;6.00;;;1.42;;
79139;SDS011;68546;59.142;37.948;2023-04-19T12:36:23;6.20;;;1.70;;
79139;SDS011;68546;59.142;37.948;2023-04-19T12:38:50;4.47;;;1.30;;
79139;SDS011;68546;59.142;37.948;2023-04-19T12:41:16;4.90;;;1.13;;
79139;SDS011;68546;59.142;37.948;2023-04-19T12:43:42;5.60;;;1.40;;
79139;SDS011;68546;59.142;37.948;2023-04-19T12:46:09;5.43;;;1.40;;
79139;SDS011;68546;59.142;37.948;2023-04-19T12:48:35;4.37;;;1.20;;
79139;SDS011;68546;59.142;37.948;2023-04-19T12:51:02;5.22;;;1.20;;
79139;SDS011;68546;59.142;37.948;2023-04-19T12:53:28;4.13;;;1.30;;
79139;SDS011;68546;59.142;37.948;2023-04-19T12:55:55;5.28;;;1.50;;
79139;SDS011;68546;59.142;37.948;2023-04-19T12:58:21;4.65;;;1.23;;
79139;SDS011;68546;59.142;37.948;2023-04-19T13:00:47;4.33;;;1.27;;
79139;SDS011;68546;59.142;37.948;2023-04-19T13:03:14;4.80;;;1.52;;
79139;SDS011;68546;59.142;37.948;2023-04-19T13:05:40;4.05;;;1.13;;
79139;SDS011;68546;59.142;37.948;2023-04-19T13:08:07;6.45;;;1.35;;
79139;SDS011;68546;59.142;37.948;2023-04-19T13:10:33;5.90;;;2.10;;
79139;SDS011;68546;59.142;37.948;2023-04-19T13:13:00;5.90;;;1.73;;
79139;SDS011;68546;59.142;37.948;2023-04-19T13:15:26;6.68;;;1.80;;
79139;SDS011;68546;59.142;37.948;2023-04-19T13:17:53;8.05;;;1.60;;
79139;SDS011;68546;59.142;37.948;2023-04-19T13:20:20;4.35;;;1.30;;
79139;SDS011;68546;59.142;37.948;2023-04-19T13:22:46;6.38;;;1.30;;
79139;SDS011;68546;59.142;37.948;2023-04-19T13:25:12;7.43;;;1.17;;
79139;SDS011;68546;59.142;37.948;2023-04-19T13:27:39;5.05;;;1.17;;
79139;SDS011;68546;59.142;37.948;2023-04-19T13:30:05;7.32;;;1.50;;
79139;SDS011;68546;59.142;37.948;2023-04-19T13:32:32;4.50;;;1.23;;
79139;SDS011;68546;59.142;37.948;2023-04-19T13:34:59;4.65;;;1.25;;
79139;SDS011;68546;59.142;37.948;2023-04-19T13:37:27;5.93;;;1.33;;
79139;SDS011;68546;59.142;37.948;2023-04-19T13:39:55;3.97;;;1.10;;
79139;SDS011;68546;59.142;37.948;2023-04-19T13:42:22;3.67;;;0.93;;
79139;SDS011;68546;59.142;37.948;2023-04-19T13:44:49;3.25;;;0.88;;
79139;SDS011;68546;59.142;37.948;2023-04-19T13:47:18;8.38;;;1.30;;
79139;SDS011;68546;59.142;37.948;2023-04-19T13:49:44;4.87;;;1.20;;
79139;SDS011;68546;59.142;37.948;2023-04-19T13:52:18;3.92;;;1.20;;
79139;SDS011;68546;59.142;37.948;2023-04-19T13:54:46;5.40;;;1.27;;
79139;SDS011;68546;59.142;37.948;2023-04-19T13:57:13;3.88;;;1.20;;
79139;SDS011;68546;59.142;37.948;2023-04-19T13:59:42;5.95;;;1.45;;
79139;SDS011;68546;59.142;37.948;2023-04-19T14:02:08;4.67;;;1.40;;
79139;SDS011;68546;59.142;37.948;2023-04-19T14:04:36;5.18;;;1.10;;
79139;SDS011;68546;59.142;37.948;2023-04-19T14:07:03;5.03;;;1.38;;
79139;SDS011;68546;59.142;37.948;2023-04-19T14:09:31;4.63;;;1.25;;
79139;SDS011;68546;59.142;37.948;2023-04-19T14:11:57;3.55;;;1.00;;
79139;SDS011;68546;59.142;37.948;2023-04-19T14:14:24;4.47;;;1.40;;
79139;SDS011;68546;59.142;37.948;2023-04-19T14:16:51;5.57;;;1.00;;
79139;SDS011;68546;59.142;37.948;2023-04-19T14:19:18;13.90;;;1.63;;
79139;SDS011;68546;59.142;37.948;2023-04-19T14:21:46;3.55;;;0.90;;
79139;SDS011;68546;59.142;37.948;2023-04-19T14:24:13;4.68;;;1.20;;
79139;SDS011;68546;59.142;37.948;2023-04-19T14:26:41;5.23;;;1.00;;
79139;SDS011;68546;59.142;37.948;2023-04-19T14:29:09;4.03;;;1.08;;
79139;SDS011;68546;59.142;37.948;2023-04-19T14:31:36;7.20;;;1.50;;
79139;SDS011;68546;59.142;37.948;2023-04-19T14:34:03;5.90;;;1.50;;
79139;SDS011;68546;59.142;37.948;2023-04-19T14:36:31;5.45;;;1.27;;
79139;SDS011;68546;59.142;37.948;2023-04-19T14:38:57;7.83;;;1.60;;
79139;SDS011;68546;59.142;37.948;2023-04-19T14:41:25;3.92;;;1.10;;
79139;SDS011;68546;59.142;37.948;2023-04-19T14:43:53;3.80;;;1.10;;
79139;SDS011;68546;59.142;37.948;2023-04-19T14:46:20;4.47;;;1.25;;
79139;SDS011;68546;59.142;37.948;2023-04-19T14:48:47;7.95;;;1.40;;
79139;SDS011;68546;59.142;37.948;2023-04-19T14:51:14;7.10;;;1.50;;
79139;SDS011;68546;59.142;37.948;2023-04-19T14:53:41;7.50;;;1.67;;
79139;SDS011;68546;59.142;37.948;2023-04-19T14:56:08;7.38;;;1.48;;
79139;SDS011;68546;59.142;37.948;2023-04-19T14:58:36;6.55;;;1.50;;